Time;durP1;ratioP1;P1;durP2;ratioP2;P2;SDS_P1;SDS_P2;PMS_P1;PMS_P2;Temp;Humidity;BMP_temperature;BMP_pressure;BME280_temperature;BME280_humidity;BME280_pressure;Samples;Min_cycle;Max_cycle;Signal;HPM_P1;HPM_P2
2021/01/16 00:00:35;;;;;;;17.75;15.95;;;-1.70;99.90;;;;;;5027410;28;20037;-72
2021/01/16 00:03:02;;;;;;;18.38;16.50;;;-1.60;99.90;;;;;;5046563;28;20068;-72
2021/01/16 00:05:29;;;;;;;18.08;15.75;;;-1.60;99.90;;;;;;5047991;28;20052;-72
2021/01/16 00:08:10;;;;;;;17.85;16.08;;;-1.50;99.90;;;;;;5047148;28;20128;-72
2021/01/16 00:10:41;;;;;;;17.02;15.52;;;-1.50;99.90;;;;;;4996322;28;20067;-73
2021/01/16 00:13:18;;;;;;;17.10;15.38;;;-1.50;99.90;;;;;;5048472;28;20705;-72
2021/01/16 00:15:46;;;;;;;17.15;15.48;;;-1.60;99.90;;;;;;5041049;28;20051;-72
2021/01/16 00:18:18;;;;;;;17.73;15.73;;;-1.60;99.90;;;;;;5012524;28;20060;-72
2021/01/16 00:20:49;;;;;;;17.63;16.02;;;-1.60;99.90;;;;;;5043078;28;20127;-72
2021/01/16 00:23:16;;;;;;;19.92;16.40;;;-1.60;99.90;;;;;;5045501;28;20680;-72
2021/01/16 00:25:43;;;;;;;19.52;16.92;;;-1.60;99.90;;;;;;5030339;28;20126;-73
2021/01/16 00:28:29;;;;;;;19.50;17.35;;;-1.60;99.90;;;;;;5046364;28;22318;-72
2021/01/16 00:30:57;;;;;;;19.48;16.75;;;-1.60;99.90;;;;;;5043095;28;20488;-71
2021/01/16 00:33:29;;;;;;;19.20;16.42;;;-1.70;99.90;;;;;;5025344;28;20237;-71
2021/01/16 00:35:57;;;;;;;20.35;18.13;;;-1.60;99.90;;;;;;5025096;28;20045;-71
2021/01/16 00:38:24;;;;;;;21.55;17.08;;;-1.70;99.90;;;;;;5002188;28;20037;-72
2021/01/16 00:40:51;;;;;;;19.25;17.20;;;-1.70;99.90;;;;;;5009785;28;20045;-72
2021/01/16 00:43:17;;;;;;;18.95;17.02;;;-1.80;99.90;;;;;;5021286;28;20379;-72
2021/01/16 00:45:49;;;;;;;18.23;16.35;;;-1.80;99.90;;;;;;5048996;28;20045;-72
2021/01/16 00:48:17;;;;;;;19.02;17.02;;;-1.90;99.90;;;;;;5012175;28;20041;-72
2021/01/16 00:50:45;;;;;;;18.40;16.65;;;-1.90;99.90;;;;;;5045316;28;20053;-72
2021/01/16 00:53:13;;;;;;;19.90;16.77;;;-1.90;99.90;;;;;;5029102;28;20049;-71
2021/01/16 00:55:50;;;;;;;18.10;16.23;;;-1.80;99.90;;;;;;5045796;28;20083;-72
2021/01/16 00:58:19;;;;;;;18.77;16.88;;;-1.90;99.90;;;;;;5046108;28;20057;-71
2021/01/16 01:00:50;;;;;;;21.33;18.27;;;-1.80;99.90;;;;;;5042616;28;20060;-71
2021/01/16 01:03:24;;;;;;;20.58;18.25;;;-1.80;99.90;;;;;;5034901;28;20077;-72
2021/01/16 01:05:51;;;;;;;22.88;19.67;;;-1.70;99.90;;;;;;5040319;28;20483;-72
2021/01/16 01:08:26;;;;;;;22.92;18.17;;;-1.60;99.90;;;;;;5029002;28;20045;-71
2021/01/16 01:10:53;;;;;;;30.65;19.30;;;-1.70;99.90;;;;;;5045531;28;20114;-72
2021/01/16 01:13:19;;;;;;;25.40;19.25;;;-1.70;99.90;;;;;;5046739;28;20049;-71
2021/01/16 01:15:46;;;;;;;28.33;18.95;;;-1.60;99.90;;;;;;5044535;28;20045;-72
2021/01/16 01:18:13;;;;;;;26.90;19.88;;;-1.60;99.90;;;;;;5029990;28;20081;-72
2021/01/16 01:20:39;;;;;;;26.42;20.40;;;-1.60;99.90;;;;;;5045069;28;20447;-72
2021/01/16 01:23:05;;;;;;;29.98;21.10;;;-1.70;99.90;;;;;;5047199;28;20045;-72
2021/01/16 01:25:32;;;;;;;26.35;18.98;;;-1.60;99.90;;;;;;5044473;28;20545;-71
2021/01/16 01:28:00;;;;;;;28.65;18.80;;;-1.60;99.90;;;;;;5044693;28;20063;-71
2021/01/16 01:30:29;;;;;;;26.00;20.55;;;-1.60;99.90;;;;;;5025850;28;20063;-72
2021/01/16 01:32:57;;;;;;;30.92;20.55;;;-1.60;99.90;;;;;;5026435;28;20281;-71
2021/01/16 01:35:23;;;;;;;29.17;20.33;;;-1.60;99.90;;;;;;5045006;28;20071;-71
2021/01/16 01:37:56;;;;;;;25.90;19.15;;;-1.50;99.90;;;;;;5041882;28;20079;-72
2021/01/16 01:40:26;;;;;;;28.42;19.23;;;-1.50;99.90;;;;;;5044801;28;20060;-72
2021/01/16 01:42:55;;;;;;;26.25;18.30;;;-1.60;99.90;;;;;;5044756;28;20061;-71
2021/01/16 01:45:23;;;;;;;27.10;20.30;;;-1.60;99.90;;;;;;5028396;28;20059;-71
2021/01/16 01:47:50;;;;;;;28.88;20.13;;;-1.60;99.90;;;;;;5042357;28;20455;-72
2021/01/16 01:50:19;;;;;;;25.23;18.45;;;-1.60;99.90;;;;;;5043009;28;20083;-72
2021/01/16 01:52:49;;;;;;;25.85;18.67;;;-1.60;99.90;;;;;;5039544;28;20055;-72
2021/01/16 01:55:15;;;;;;;25.40;20.10;;;-1.50;99.90;;;;;;5046254;28;20055;-71
2021/01/16 01:57:50;;;;;;;23.92;19.52;;;-1.50;99.90;;;;;;5044921;28;20041;-71
2021/01/16 02:00:17;;;;;;;;;;;-1.60;99.90;;;;;;5045735;28;20049;-71
2021/01/16 02:02:43;;;;;;;26.70;19.45;;;-1.70;99.90;;;;;;5043998;28;20387;-72
2021/01/16 02:05:12;;;;;;;27.73;19.90;;;-1.60;99.90;;;;;;5026700;28;20465;-71
2021/01/16 02:07:44;;;;;;;23.02;18.92;;;-1.60;99.90;;;;;;5029982;28;20045;-72
2021/01/16 02:10:22;;;;;;;28.52;20.23;;;-1.70;99.90;;;;;;5044707;28;20138;-71
2021/01/16 02:12:57;;;;;;;24.17;19.42;;;-1.60;99.90;;;;;;5027841;28;20114;-71
2021/01/16 02:15:37;;;;;;;25.38;20.00;;;-1.60;99.90;;;;;;5027589;28;20284;-71
2021/01/16 02:18:27;;;;;;;26.25;19.98;;;-1.60;99.90;;;;;;5026121;28;20056;-72
2021/01/16 02:20:56;;;;;;;20.02;17.58;;;-1.60;99.90;;;;;;5023932;28;20041;-71
2021/01/16 02:23:33;;;;;;;26.85;20.05;;;-1.70;99.90;;;;;;5044100;28;20077;-72
2021/01/16 02:26:15;;;;;;;23.73;19.63;;;-1.70;99.90;;;;;;5043896;28;20055;-71
2021/01/16 02:29:00;;;;;;;25.13;19.42;;;-1.70;99.90;;;;;;5021849;28;20240;-72
2021/01/16 02:31:32;;;;;;;24.80;20.83;;;-1.70;99.90;;;;;;5016750;28;20098;-72
2021/01/16 02:34:00;;;;;;;26.70;20.15;;;-1.60;99.90;;;;;;5025804;28;20053;-72
2021/01/16 02:36:56;;;;;;;27.00;20.05;;;-1.50;99.90;;;;;;5015390;28;20462;-72
2021/01/16 02:39:43;;;;;;;27.65;20.23;;;-1.40;99.90;;;;;;5006564;28;20124;-71
2021/01/16 02:42:45;;;;;;;30.80;21.90;;;-1.50;99.90;;;;;;5041322;28;20529;-72
2021/01/16 02:45:16;;;;;;;27.63;20.60;;;-1.60;99.90;;;;;;5040683;28;20191;-72
2021/01/16 02:47:53;;;;;;;24.33;19.85;;;-1.60;99.90;;;;;;5022531;28;20765;-72
2021/01/16 02:50:22;;;;;;;29.23;20.20;;;-1.60;99.90;;;;;;5044031;28;20057;-72
2021/01/16 02:52:50;;;;;;;27.02;20.63;;;-1.60;99.90;;;;;;5043197;28;20098;-72
2021/01/16 02:55:17;;;;;;;29.95;19.67;;;-1.70;99.90;;;;;;5043687;28;20156;-72
2021/01/16 02:57:44;;;;;;;33.25;21.48;;;-1.70;99.90;;;;;;5027537;28;20654;-72
2021/01/16 03:00:16;;;;;;;30.17;21.40;;;-1.60;99.90;;;;;;5042741;28;20578;-72
2021/01/16 03:02:43;;;;;;;29.70;20.52;;;-1.50;99.90;;;;;;5042715;28;20102;-72
2021/01/16 03:05:09;;;;;;;29.33;21.42;;;-1.40;99.90;;;;;;5042686;28;20135;-72
2021/01/16 03:07:36;;;;;;;29.63;21.30;;;-1.50;99.90;;;;;;5042919;28;20060;-71
2021/01/16 03:10:07;;;;;;;28.25;19.92;;;-1.50;99.90;;;;;;5044204;28;20053;-72
2021/01/16 03:12:34;;;;;;;31.15;19.42;;;-1.60;99.90;;;;;;5047846;28;20046;-72
2021/01/16 03:15:16;;;;;;;31.77;21.73;;;-1.60;99.90;;;;;;5042118;28;20139;-71
2021/01/16 03:17:57;;;;;;;35.13;21.20;;;-1.50;99.90;;;;;;5011457;28;20041;-72
2021/01/16 03:20:25;;;;;;;29.85;20.35;;;-1.50;99.90;;;;;;5008791;28;20041;-72
2021/01/16 03:22:54;;;;;;;30.20;21.48;;;-1.40;99.90;;;;;;5034144;28;20094;-72
2021/01/16 03:25:23;;;;;;;30.80;20.33;;;-1.50;99.90;;;;;;5027072;28;22785;-71
2021/01/16 03:27:53;;;;;;;33.03;21.05;;;-1.50;99.90;;;;;;5046116;28;20042;-72
2021/01/16 03:30:20;;;;;;;34.72;20.48;;;-1.40;99.90;;;;;;5037854;28;20056;-72
2021/01/16 03:32:48;;;;;;;33.70;21.42;;;-1.40;99.90;;;;;;5023457;28;20049;-71
2021/01/16 03:35:16;;;;;;;34.00;22.38;;;-1.40;99.90;;;;;;5004888;28;20042;-72
2021/01/16 03:37:44;;;;;;;36.40;22.08;;;-1.40;99.90;;;;;;5024885;28;20054;-72
2021/01/16 03:40:12;;;;;;;33.88;22.33;;;-1.40;99.90;;;;;;5024388;28;20053;-72
2021/01/16 03:42:39;;;;;;;30.40;19.95;;;-1.40;99.90;;;;;;5022942;28;20049;-71
2021/01/16 03:45:09;;;;;;;32.15;20.65;;;-1.60;99.90;;;;;;5023733;28;20144;-71
2021/01/16 03:47:36;;;;;;;33.85;21.20;;;-1.50;99.90;;;;;;5021775;28;20091;-71
2021/01/16 03:50:07;;;;;;;32.85;20.90;;;-1.50;99.90;;;;;;4990059;28;20046;-72
2021/01/16 03:52:39;;;;;;;38.33;22.52;;;-1.50;99.90;;;;;;5021761;28;20038;-72
2021/01/16 03:55:07;;;;;;;35.75;23.20;;;-1.60;99.90;;;;;;5022726;28;20442;-72
2021/01/16 03:57:34;;;;;;;35.13;22.45;;;-1.50;99.90;;;;;;5024825;28;20482;-72
2021/01/16 04:00:01;;;;;;;35.83;22.20;;;-1.40;99.90;;;;;;5006468;28;20156;-72
2021/01/16 04:02:30;;;;;;;33.42;21.67;;;-1.50;99.90;;;;;;5015883;28;20219;-71
2021/01/16 04:05:00;;;;;;;32.28;20.35;;;-1.50;99.90;;;;;;5022115;28;20057;-71
2021/01/16 04:07:27;;;;;;;36.75;21.90;;;-1.50;99.90;;;;;;5021970;28;20486;-72
2021/01/16 04:09:56;;;;;;;31.95;19.98;;;-1.40;99.90;;;;;;5006327;28;20144;-72
2021/01/16 04:12:24;;;;;;;34.58;20.92;;;-1.40;99.90;;;;;;5022042;28;20056;-72
2021/01/16 04:14:50;;;;;;;33.25;21.75;;;-1.40;99.90;;;;;;5006690;28;20076;-71
2021/01/16 04:17:17;;;;;;;36.30;21.17;;;-1.40;99.90;;;;;;5006012;28;20046;-72
2021/01/16 04:19:43;;;;;;;33.40;20.85;;;-1.40;99.90;;;;;;5023292;28;20389;-72
2021/01/16 04:22:10;;;;;;;36.88;21.63;;;-1.40;99.90;;;;;;5005171;28;20253;-72
2021/01/16 04:24:36;;;;;;;35.50;21.23;;;-1.30;99.90;;;;;;4989178;28;20038;-71
2021/01/16 04:27:03;;;;;;;35.20;21.80;;;-1.40;99.90;;;;;;5005799;28;20045;-72
2021/01/16 04:29:29;;;;;;;33.85;21.85;;;-1.40;99.90;;;;;;5023160;28;20068;-72
2021/01/16 04:31:56;;;;;;;34.15;21.42;;;-1.40;99.90;;;;;;5021915;28;20132;-72
2021/01/16 04:34:22;;;;;;;40.25;22.10;;;-1.50;99.90;;;;;;5021234;28;20045;-71
2021/01/16 04:36:49;;;;;;;35.85;22.52;;;-1.40;99.90;;;;;;5017868;28;20579;-72
2021/01/16 04:39:16;;;;;;;38.85;21.80;;;-1.40;99.90;;;;;;5025078;28;20092;-72
2021/01/16 04:41:45;;;;;;;39.17;22.05;;;-1.40;99.90;;;;;;5022853;28;20145;-72
2021/01/16 04:44:14;;;;;;;34.03;21.23;;;-1.50;99.90;;;;;;5022752;28;20068;-72
2021/01/16 04:46:42;;;;;;;34.33;22.63;;;-1.40;99.90;;;;;;5040063;28;20040;-72
2021/01/16 04:49:09;;;;;;;35.53;21.60;;;-1.40;99.90;;;;;;5057289;28;20130;-72
2021/01/16 04:51:43;;;;;;;38.95;23.00;;;-1.40;99.90;;;;;;5030497;28;20418;-72
2021/01/16 04:54:17;;;;;;;37.63;23.20;;;-1.30;99.90;;;;;;5035202;28;20048;-72
2021/01/16 04:56:46;;;;;;;34.28;21.83;;;-1.30;99.90;;;;;;5029647;28;20496;-72
2021/01/16 04:59:13;;;;;;;38.13;23.45;;;-1.40;99.90;;;;;;5029593;28;20507;-73
2021/01/16 05:01:40;;;;;;;36.53;22.63;;;-1.40;99.90;;;;;;5049707;28;20135;-72
2021/01/16 05:04:08;;;;;;;39.33;24.80;;;-1.40;99.90;;;;;;5023263;28;20055;-72
2021/01/16 05:06:39;;;;;;;41.22;24.05;;;-1.40;99.90;;;;;;5050455;28;20073;-72
2021/01/16 05:09:06;;;;;;;34.40;23.27;;;-1.30;99.90;;;;;;5031207;28;20041;-72
2021/01/16 05:11:38;;;;;;;37.22;23.45;;;-1.40;99.90;;;;;;5049290;28;20090;-72
2021/01/16 05:14:16;;;;;;;37.75;22.75;;;-1.40;99.90;;;;;;5055600;28;20077;-72
2021/01/16 05:16:59;;;;;;;40.65;24.33;;;-1.30;99.90;;;;;;5033871;28;20080;-72
2021/01/16 05:19:29;;;;;;;38.47;22.95;;;-1.40;99.90;;;;;;5037936;28;20072;-72
2021/01/16 05:21:55;;;;;;;40.00;23.60;;;-1.40;99.90;;;;;;5032615;28;20529;-72
2021/01/16 05:24:23;;;;;;;39.03;23.88;;;-1.30;99.90;;;;;;5063537;28;20564;-72
2021/01/16 05:26:56;;;;;;;39.08;24.58;;;-1.30;99.90;;;;;;5065131;28;20497;-72
2021/01/16 05:29:24;;;;;;;38.10;22.52;;;-1.30;99.90;;;;;;5044859;28;20079;-72
2021/01/16 05:31:55;;;;;;;42.25;24.05;;;-1.20;99.90;;;;;;5037371;28;20115;-72
2021/01/16 05:34:30;;;;;;;40.10;22.40;;;-1.20;99.90;;;;;;5026212;28;20083;-72
2021/01/16 05:36:57;;;;;;;37.75;22.95;;;-1.20;99.90;;;;;;5038103;28;20033;-72
2021/01/16 05:39:27;;;;;;;39.78;24.38;;;-1.20;99.90;;;;;;5022396;28;20052;-72
2021/01/16 05:42:03;;;;;;;37.40;22.20;;;-1.20;99.90;;;;;;5044111;28;20045;-72
2021/01/16 05:44:29;;;;;;;37.33;22.45;;;-1.20;99.90;;;;;;5027343;28;20052;-71
2021/01/16 05:46:57;;;;;;;35.60;21.30;;;-1.30;99.90;;;;;;5040598;28;20037;-72
2021/01/16 05:49:25;;;;;;;40.88;23.80;;;-1.30;99.90;;;;;;5020014;28;20099;-72
2021/01/16 05:51:53;;;;;;;39.28;22.23;;;-1.30;99.90;;;;;;5026112;28;20132;-72
2021/01/16 05:54:28;;;;;;;36.67;23.42;;;-1.20;99.90;;;;;;5037012;28;20132;-72
2021/01/16 05:56:56;;;;;;;39.25;22.75;;;-1.20;99.90;;;;;;5043718;28;20318;-71
2021/01/16 05:59:30;;;;;;;39.15;24.02;;;-1.30;99.90;;;;;;5027546;28;20160;-72
2021/01/16 06:01:56;;;;;;;44.83;24.83;;;-1.30;99.90;;;;;;5040333;28;20087;-72
2021/01/16 06:04:23;;;;;;;44.35;24.20;;;-1.40;99.90;;;;;;5021101;28;20061;-71
2021/01/16 06:06:49;;;;;;;46.38;23.90;;;-1.40;99.90;;;;;;5038980;28;20053;-72
2021/01/16 06:09:18;;;;;;;40.20;23.90;;;-1.40;99.90;;;;;;5044129;28;20049;-72
2021/01/16 06:11:50;;;;;;;42.45;24.63;;;-1.40;99.90;;;;;;5026413;28;20159;-72
2021/01/16 06:14:17;;;;;;;38.03;23.45;;;-1.40;99.90;;;;;;5009416;28;20147;-72
2021/01/16 06:16:53;;;;;;;43.15;24.08;;;-1.40;99.90;;;;;;5042220;28;20048;-72
2021/01/16 06:19:25;;;;;;;40.30;23.80;;;-1.40;99.90;;;;;;5042866;28;20055;-72
2021/01/16 06:21:53;;;;;;;40.58;24.17;;;-1.40;99.90;;;;;;5039125;28;20049;-72
2021/01/16 06:24:21;;;;;;;45.15;24.95;;;-1.40;99.90;;;;;;5044350;28;20079;-72
2021/01/16 06:26:59;;;;;;;43.47;23.98;;;-1.50;99.90;;;;;;5027575;28;20099;-72
2021/01/16 06:29:29;;;;;;;45.90;25.83;;;-1.40;99.90;;;;;;5023755;28;20045;-72
2021/01/16 06:32:02;;;;;;;50.85;25.23;;;-1.40;99.90;;;;;;5042330;28;20427;-72
2021/01/16 06:34:31;;;;;;;44.05;25.52;;;-1.50;99.90;;;;;;5043038;28;20590;-72
2021/01/16 06:37:15;;;;;;;45.90;26.35;;;-1.40;99.90;;;;;;5043867;28;20056;-72
2021/01/16 06:39:44;;;;;;;50.83;25.38;;;-1.50;99.90;;;;;;5022824;28;20163;-72
2021/01/16 06:42:21;;;;;;;49.17;25.77;;;-1.50;99.90;;;;;;5043506;28;20081;-72
2021/01/16 06:44:47;;;;;;;40.97;23.73;;;-1.50;99.90;;;;;;5028426;28;20055;-72
2021/01/16 06:47:14;;;;;;;42.88;25.58;;;-1.50;99.90;;;;;;5043365;28;20049;-72
2021/01/16 06:49:44;;;;;;;44.63;24.80;;;-1.60;99.90;;;;;;5043601;28;20053;-72
2021/01/16 06:52:10;;;;;;;46.40;24.30;;;-1.50;99.90;;;;;;5006894;28;20065;-72
2021/01/16 06:54:38;;;;;;;51.47;25.75;;;-1.50;99.90;;;;;;5044513;28;20064;-72
2021/01/16 06:57:14;;;;;;;50.47;24.35;;;-1.50;99.90;;;;;;5044940;28;20072;-73
2021/01/16 06:59:42;;;;;;;43.28;23.48;;;-1.60;99.90;;;;;;5027000;28;20045;-72
2021/01/16 07:02:26;;;;;;;45.83;25.08;;;-1.60;99.90;;;;;;5038791;28;20527;-72
2021/01/16 07:04:59;;;;;;;47.85;24.63;;;-1.60;99.90;;;;;;5043967;28;20099;-72
2021/01/16 07:07:39;;;;;;;43.38;25.33;;;-1.60;99.90;;;;;;5024631;28;20557;-72
2021/01/16 07:10:16;;;;;;;46.55;25.70;;;-1.50;99.90;;;;;;5026097;28;20037;-72
2021/01/16 07:12:48;;;;;;;47.17;27.25;;;-1.50;99.90;;;;;;5043675;28;20439;-72
2021/01/16 07:15:17;;;;;;;54.80;27.05;;;-1.50;99.90;;;;;;5009549;28;20183;-72
2021/01/16 07:17:44;;;;;;;47.67;26.75;;;-1.50;99.90;;;;;;5026783;28;20091;-72
2021/01/16 07:20:12;;;;;;;47.00;25.17;;;-1.50;99.90;;;;;;5043127;28;20057;-72
2021/01/16 07:22:43;;;;;;;45.75;26.05;;;-1.60;99.90;;;;;;5039245;28;20042;-71
2021/01/16 07:25:28;;;;;;;45.40;26.25;;;-1.50;99.90;;;;;;5043443;28;20045;-73
2021/01/16 07:27:54;;;;;;;47.70;26.23;;;-1.40;99.90;;;;;;5023403;28;20049;-71
2021/01/16 07:30:22;;;;;;;41.28;25.92;;;-1.40;99.90;;;;;;5044389;28;20041;-74
2021/01/16 07:32:50;;;;;;;42.53;24.25;;;-1.40;99.90;;;;;;5021396;28;20033;-72
2021/01/16 07:35:19;;;;;;;51.75;27.23;;;-1.40;99.90;;;;;;5024480;28;20044;-71
2021/01/16 07:37:48;;;;;;;48.15;26.92;;;-1.30;99.90;;;;;;5038380;28;20047;-72
2021/01/16 07:40:30;;;;;;;54.45;27.33;;;-1.30;99.90;;;;;;5039733;28;20061;-72
2021/01/16 07:43:07;;;;;;;48.38;27.90;;;-1.30;99.90;;;;;;5042519;28;20068;-71
2021/01/16 07:45:39;;;;;;;59.85;32.10;;;-1.30;99.90;;;;;;5018026;28;20049;-71
2021/01/16 07:48:06;;;;;;;51.05;27.55;;;-1.30;99.90;;;;;;5042745;28;20106;-72
2021/01/16 07:50:37;;;;;;;60.72;30.65;;;-1.30;99.90;;;;;;5026448;28;20041;-72
2021/01/16 07:53:09;;;;;;;50.00;28.38;;;-1.30;99.90;;;;;;5043222;28;20124;-71
2021/01/16 07:55:35;;;;;;;49.05;27.52;;;-1.40;99.90;;;;;;5044632;28;20041;-72
2021/01/16 07:58:11;;;;;;;47.72;27.42;;;-1.40;99.90;;;;;;5024302;28;20053;-70
2021/01/16 08:00:43;;;;;;;46.58;27.35;;;-1.40;99.90;;;;;;5039632;28;20252;-72
2021/01/16 08:03:21;;;;;;;53.30;29.45;;;-1.30;99.90;;;;;;5006918;28;20063;-73
2021/01/16 08:05:56;;;;;;;51.97;29.30;;;-1.40;99.90;;;;;;5014258;28;20656;-72
2021/01/16 08:08:46;;;;;;;;;;;-1.30;99.90;;;;;;5044822;28;20048;-71
2021/01/16 08:11:17;;;;;;;48.67;26.98;;;-1.30;99.90;;;;;;5018342;28;19924;-73
2021/01/16 08:13:47;;;;;;;45.60;26.67;;;-1.20;99.90;;;;;;5026943;28;20239;-72
2021/01/16 08:16:14;;;;;;;45.33;28.20;;;-1.20;99.90;;;;;;5040751;28;20045;-73
2021/01/16 08:18:47;;;;;;;65.38;32.17;;;-1.20;99.90;;;;;;5043369;28;20114;-72
2021/01/16 08:21:15;;;;;;;55.88;29.73;;;-1.10;99.90;;;;;;5041154;28;20057;-72
2021/01/16 08:23:48;;;;;;;51.38;29.00;;;-1.20;99.90;;;;;;5044485;28;20049;-73
2021/01/16 08:26:19;;;;;;;51.85;29.25;;;-1.10;99.90;;;;;;5027857;28;20068;-72
2021/01/16 08:28:48;;;;;;;54.53;27.98;;;-1.00;99.90;;;;;;5034521;28;20057;-73
2021/01/16 08:31:28;;;;;;;48.15;27.98;;;-1.10;99.90;;;;;;5011453;28;20056;-72
2021/01/16 08:33:56;;;;;;;46.58;25.27;;;-1.10;99.90;;;;;;5044966;28;20049;-72
2021/01/16 08:36:23;;;;;;;47.75;27.25;;;-1.10;99.90;;;;;;5045965;28;20052;-72
2021/01/16 08:38:51;;;;;;;44.83;27.70;;;-1.10;99.90;;;;;;5047380;28;20128;-72
2021/01/16 08:41:25;;;;;;;43.38;27.20;;;-1.00;99.90;;;;;;5046264;28;20056;-72
2021/01/16 08:43:58;;;;;;;44.10;26.20;;;-0.90;99.90;;;;;;5046902;28;20115;-72
2021/01/16 08:46:32;;;;;;;43.60;26.25;;;-0.90;99.90;;;;;;5045195;28;20045;-70
2021/01/16 08:49:09;;;;;;;45.47;27.45;;;-0.80;99.90;;;;;;5045347;28;20049;-72
2021/01/16 08:51:49;;;;;;;46.50;29.50;;;-0.80;99.90;;;;;;5041420;28;20063;-73
2021/01/16 08:54:17;;;;;;;45.72;26.75;;;-0.80;99.90;;;;;;5044806;28;20123;-73
2021/01/16 08:57:17;;;;;;;52.70;29.42;;;-0.80;99.90;;;;;;5045713;28;20052;-71
2021/01/16 08:59:43;;;;;;;45.13;25.20;;;-0.80;99.90;;;;;;5040519;28;20056;-72
2021/01/16 09:02:16;;;;;;;47.80;25.00;;;-0.70;99.90;;;;;;5043846;28;20102;-73
2021/01/16 09:04:44;;;;;;;42.33;23.27;;;-0.70;99.90;;;;;;5028157;28;20045;-72
2021/01/16 09:07:22;;;;;;;41.38;24.52;;;-0.70;99.90;;;;;;5045089;28;20110;-72
2021/01/16 09:10:00;;;;;;;42.55;24.83;;;-0.70;99.90;;;;;;5046168;28;20484;-72
2021/01/16 09:12:32;;;;;;;39.95;23.83;;;-0.70;99.90;;;;;;5026841;28;20110;-72
2021/01/16 09:15:18;;;;;;;36.50;22.52;;;-0.70;99.90;;;;;;5046675;28;20053;-72
2021/01/16 09:18:13;;;;;;;41.72;24.52;;;-0.60;99.90;;;;;;5008226;28;20049;-73
2021/01/16 09:20:55;;;;;;;44.63;25.42;;;-0.60;99.90;;;;;;5014061;28;20485;-73
2021/01/16 09:23:52;;;;;;;38.72;25.42;;;-0.70;99.90;;;;;;5028816;28;20170;-73
2021/01/16 09:26:20;;;;;;;41.97;24.02;;;-0.50;99.90;;;;;;4995685;28;20932;-73
2021/01/16 09:29:03;;;;;;;44.85;25.48;;;-0.60;99.90;;;;;;5028254;28;20029;-75
2021/01/16 09:31:36;;;;;;;44.88;24.70;;;-0.50;99.90;;;;;;5043257;28;20098;-71
2021/01/16 09:34:10;;;;;;;35.55;23.48;;;-0.50;99.90;;;;;;5040663;28;20068;-72
2021/01/16 09:36:46;;;;;;;47.65;27.77;;;-0.40;99.90;;;;;;5042028;28;20041;-71
2021/01/16 09:39:17;;;;;;;37.78;25.33;;;-0.30;99.90;;;;;;5043232;28;20474;-72
2021/01/16 09:41:45;;;;;;;41.92;25.67;;;-0.30;99.90;;;;;;5027365;28;20099;-72
2021/01/16 09:44:12;;;;;;;44.58;25.88;;;-0.30;99.90;;;;;;5043134;28;20048;-71
2021/01/16 09:46:43;;;;;;;42.78;27.13;;;-0.20;99.90;;;;;;5027617;28;20049;-71
2021/01/16 09:49:12;;;;;;;40.35;25.63;;;-0.30;99.90;;;;;;5026397;28;20045;-71
2021/01/16 09:51:39;;;;;;;36.63;24.95;;;-0.30;99.90;;;;;;5043468;28;20048;-71
2021/01/16 09:54:15;;;;;;;42.10;25.65;;;-0.30;99.90;;;;;;5044465;28;20124;-71
2021/01/16 09:56:47;;;;;;;43.53;26.02;;;-0.40;99.90;;;;;;5027944;28;20790;-72
2021/01/16 09:59:22;;;;;;;49.72;27.77;;;-0.30;99.90;;;;;;5027644;28;20479;-71
2021/01/16 10:02:10;;;;;;;38.95;25.10;;;-0.20;99.90;;;;;;5043825;28;20057;-71
2021/01/16 10:04:42;;;;;;;37.33;24.30;;;-0.10;99.90;;;;;;5027977;28;20059;-73
2021/01/16 10:07:10;;;;;;;36.42;25.30;;;0.00;99.90;;;;;;5026806;28;20102;-72
2021/01/16 10:10:13;;;;;;;39.67;24.88;;;0.00;99.90;;;;;;5027969;28;20060;-73
2021/01/16 10:12:41;;;;;;;38.85;24.55;;;0.10;99.90;;;;;;4990461;28;20044;-72
2021/01/16 10:15:29;;;;;;;49.35;25.73;;;0.00;99.90;;;;;;5028238;28;20474;-72
2021/01/16 10:17:58;;;;;;;37.20;25.38;;;0.00;99.90;;;;;;5021598;28;20120;-71
2021/01/16 10:20:35;;;;;;;35.22;25.33;;;0.10;99.90;;;;;;5007838;28;20188;-71
2021/01/16 10:23:06;;;;;;;43.13;27.25;;;0.10;99.90;;;;;;5008158;28;20474;-71
2021/01/16 10:25:41;;;;;;;36.72;24.90;;;0.20;99.90;;;;;;5004558;28;20041;-71
2021/01/16 10:28:31;;;;;;;38.47;24.90;;;0.00;99.90;;;;;;5007589;28;20415;-72
2021/01/16 10:31:03;;;;;;;32.55;23.83;;;0.00;99.90;;;;;;5019159;28;20057;-72
2021/01/16 10:33:40;;;;;;;43.08;24.83;;;0.00;99.90;;;;;;4988483;28;20060;-71
2021/01/16 10:36:12;;;;;;;31.15;23.50;;;0.10;99.90;;;;;;5020580;28;20174;-72
2021/01/16 10:38:42;;;;;;;35.40;24.30;;;0.10;99.90;;;;;;5008364;28;20152;-74
2021/01/16 10:41:11;;;;;;;43.35;25.63;;;0.20;99.90;;;;;;5024261;28;20049;-72
2021/01/16 10:43:38;;;;;;;38.72;24.17;;;0.20;99.90;;;;;;5006132;28;20144;-73
2021/01/16 10:46:21;;;;;;;34.10;25.35;;;0.20;99.90;;;;;;5022474;28;20049;-72
2021/01/16 10:48:49;;;;;;;34.47;24.45;;;0.30;99.90;;;;;;4992839;28;20108;-72
2021/01/16 10:51:22;;;;;;;35.47;26.77;;;0.30;99.90;;;;;;5019049;28;20401;-72
2021/01/16 10:53:56;;;;;;;43.58;27.90;;;0.40;99.90;;;;;;5019973;28;20116;-73
2021/01/16 10:56:26;;;;;;;33.22;24.08;;;0.50;99.90;;;;;;5014984;28;20161;-73
2021/01/16 10:59:08;;;;;;;42.55;27.73;;;0.40;99.90;;;;;;5007674;28;20053;-73
2021/01/16 11:01:49;;;;;;;37.83;25.63;;;0.40;99.90;;;;;;5018029;28;20076;-73
2021/01/16 11:04:19;;;;;;;38.63;26.10;;;0.30;99.90;;;;;;5023447;28;20053;-72
2021/01/16 11:06:55;;;;;;;44.05;26.83;;;0.40;99.90;;;;;;5003563;28;20059;-72
2021/01/16 11:09:34;;;;;;;37.03;25.80;;;0.50;99.90;;;;;;5022846;28;20067;-73
2021/01/16 11:12:05;;;;;;;37.30;25.45;;;0.60;99.90;;;;;;5020888;28;20045;-73
2021/01/16 11:14:43;;;;;;;27.63;23.73;;;0.60;99.90;;;;;;5006457;28;20448;-73
2021/01/16 11:17:12;;;;;;;35.03;24.60;;;0.70;99.90;;;;;;5005920;28;20061;-72
2021/01/16 11:19:44;;;;;;;38.97;26.42;;;0.50;99.90;;;;;;5007081;28;20092;-72
2021/01/16 11:22:15;;;;;;;36.17;24.50;;;0.40;99.90;;;;;;5021107;28;20056;-72
2021/01/16 11:24:54;;;;;;;37.40;26.65;;;0.30;99.90;;;;;;5021896;28;20527;-72
2021/01/16 11:27:28;;;;;;;35.28;27.58;;;0.40;99.90;;;;;;5024305;28;20072;-72
2021/01/16 11:30:14;;;;;;;39.63;28.37;;;0.40;99.90;;;;;;5024775;28;20045;-73
2021/01/16 11:32:40;;;;;;;38.95;27.90;;;0.50;99.90;;;;;;5017674;28;20379;-72
2021/01/16 11:35:12;;;;;;;41.28;27.23;;;0.70;99.90;;;;;;5021545;28;20068;-72
2021/01/16 11:37:52;;;;;;;32.90;25.70;;;0.80;99.90;;;;;;5022047;28;20045;-72
2021/01/16 11:40:28;;;;;;;40.40;28.25;;;0.60;99.90;;;;;;5022905;28;20057;-73
2021/01/16 11:43:07;;;;;;;35.30;24.67;;;0.50;99.90;;;;;;5022940;28;20137;-73
2021/01/16 11:45:35;;;;;;;34.67;26.98;;;0.60;99.90;;;;;;5021536;28;20057;-73
2021/01/16 11:48:04;;;;;;;32.50;24.55;;;0.70;99.90;;;;;;5005698;28;20115;-73
2021/01/16 11:50:36;;;;;;;30.52;23.95;;;0.70;99.90;;;;;;4990811;28;20483;-72
2021/01/16 11:53:10;;;;;;;38.58;27.75;;;0.70;99.90;;;;;;4987125;28;20054;-73
2021/01/16 11:55:36;;;;;;;34.50;26.17;;;0.60;99.90;;;;;;5021878;28;20655;-74
2021/01/16 11:58:04;;;;;;;35.40;27.45;;;0.60;99.90;;;;;;5010978;28;20072;-73
2021/01/16 12:00:31;;;;;;;34.95;26.50;;;0.60;99.90;;;;;;5008953;28;20132;-72
2021/01/16 12:03:16;;;;;;;30.17;25.75;;;0.80;99.90;;;;;;5024620;28;20076;-73
2021/01/16 12:05:43;;;;;;;31.17;24.42;;;0.90;99.90;;;;;;5025111;28;20133;-73
2021/01/16 12:08:12;;;;;;;26.65;23.50;;;0.90;99.90;;;;;;5026965;28;20572;-73
2021/01/16 12:10:40;;;;;;;29.33;24.58;;;0.80;99.90;;;;;;4993300;28;20053;-72
2021/01/16 12:13:11;;;;;;;29.63;24.98;;;0.80;99.90;;;;;;5026613;28;20077;-73
2021/01/16 12:15:37;;;;;;;30.77;24.95;;;0.80;99.90;;;;;;5025882;28;20053;-72
2021/01/16 12:18:04;;;;;;;30.23;24.88;;;0.80;99.90;;;;;;5028519;28;20053;-73
2021/01/16 12:20:32;;;;;;;35.75;27.10;;;0.70;99.90;;;;;;5008903;28;20069;-73
2021/01/16 12:23:00;;;;;;;29.33;23.58;;;0.70;99.90;;;;;;5010136;28;20140;-72
2021/01/16 12:25:31;;;;;;;32.35;23.75;;;0.70;99.90;;;;;;5026663;28;20202;-72
2021/01/16 12:28:03;;;;;;;34.55;23.92;;;0.70;99.90;;;;;;5028157;28;20073;-73
2021/01/16 12:30:38;;;;;;;30.77;23.45;;;0.80;99.90;;;;;;5026209;28;20076;-73
2021/01/16 12:33:05;;;;;;;32.20;23.73;;;0.70;99.90;;;;;;5023506;28;20464;-73
2021/01/16 12:35:31;;;;;;;40.33;25.95;;;0.70;99.90;;;;;;5008360;28;20045;-72
2021/01/16 12:37:58;;;;;;;30.65;23.58;;;0.70;99.90;;;;;;5010239;28;20052;-71
2021/01/16 12:40:27;;;;;;;32.17;23.13;;;0.70;99.90;;;;;;5027149;28;20064;-74
2021/01/16 12:42:54;;;;;;;36.63;25.42;;;0.70;99.90;;;;;;5026939;28;20558;-73
2021/01/16 12:45:23;;;;;;;31.60;23.65;;;0.70;99.90;;;;;;5025386;28;20051;-72
2021/01/16 12:47:55;;;;;;;26.10;22.48;;;0.70;99.90;;;;;;5028184;28;20115;-74
2021/01/16 12:50:23;;;;;;;54.42;32.85;;;0.80;99.90;;;;;;5010289;28;20046;-73
2021/01/16 12:52:53;;;;;;;40.03;28.88;;;0.90;99.90;;;;;;5045223;28;20807;-74